sensor_id;sensor_type;location;lat;lon;timestamp;pressure;altitude;pressure_sealevel;temperature;humidity
14295;BME280;7231;59.370;18.016;2023-05-12T00:00:31;102297.19;;;10.21;46.06
14295;BME280;7231;59.370;18.016;2023-05-12T00:02:59;102298.78;;;10.19;46.20
14295;BME280;7231;59.370;18.016;2023-05-12T00:05:29;102291.50;;;10.13;46.30
14295;BME280;7231;59.370;18.016;2023-05-12T00:07:57;102316.22;;;10.18;46.31
14295;BME280;7231;59.370;18.016;2023-05-12T00:10:25;102304.03;;;10.19;46.49
14295;BME280;7231;59.370;18.016;2023-05-12T00:12:53;102306.56;;;10.17;46.91
14295;BME280;7231;59.370;18.016;2023-05-12T00:15:23;102306.47;;;10.16;46.60
14295;BME280;7231;59.370;18.016;2023-05-12T00:17:51;102290.28;;;10.06;46.51
14295;BME280;7231;59.370;18.016;2023-05-12T00:20:19;102308.03;;;10.12;46.47
14295;BME280;7231;59.370;18.016;2023-05-12T00:22:47;102314.09;;;10.11;46.58
14295;BME280;7231;59.370;18.016;2023-05-12T00:25:15;102311.41;;;10.09;46.60
14295;BME280;7231;59.370;18.016;2023-05-12T00:27:43;102310.41;;;10.07;46.61
14295;BME280;7231;59.370;18.016;2023-05-12T00:30:11;102318.94;;;10.03;46.88
14295;BME280;7231;59.370;18.016;2023-05-12T00:32:41;102319.66;;;10.01;46.92
14295;BME280;7231;59.370;18.016;2023-05-12T00:35:09;102310.81;;;9.99;47.08
14295;BME280;7231;59.370;18.016;2023-05-12T00:37:37;102302.13;;;9.84;47.46
14295;BME280;7231;59.370;18.016;2023-05-12T00:40:06;102315.47;;;9.88;47.17
14295;BME280;7231;59.370;18.016;2023-05-12T00:42:34;102318.84;;;9.86;47.39
14295;BME280;7231;59.370;18.016;2023-05-12T00:45:04;102318.44;;;9.78;47.54
14295;BME280;7231;59.370;18.016;2023-05-12T00:47:33;102328.16;;;9.81;47.28
14295;BME280;7231;59.370;18.016;2023-05-12T00:50:04;102326.28;;;9.78;47.47
14295;BME280;7231;59.370;18.016;2023-05-12T00:52:33;102317.84;;;9.67;47.49
14295;BME280;7231;59.370;18.016;2023-05-12T00:55:02;102332.09;;;9.72;47.54
14295;BME280;7231;59.370;18.016;2023-05-12T00:57:32;102317.50;;;9.61;47.96
14295;BME280;7231;59.370;18.016;2023-05-12T01:00:00;102331.66;;;9.65;47.72
14295;BME280;7231;59.370;18.016;2023-05-12T01:02:28;102318.97;;;9.56;47.94
14295;BME280;7231;59.370;18.016;2023-05-12T01:04:56;102333.84;;;9.57;48.00
14295;BME280;7231;59.370;18.016;2023-05-12T01:07:26;102338.00;;;9.54;47.96
14295;BME280;7231;59.370;18.016;2023-05-12T01:09:56;102307.19;;;9.33;48.32
14295;BME280;7231;59.370;18.016;2023-05-12T01:12:25;102325.06;;;9.40;48.28
14295;BME280;7231;59.370;18.016;2023-05-12T01:14:55;102334.97;;;9.46;48.40
14295;BME280;7231;59.370;18.016;2023-05-12T01:17:28;102323.88;;;9.35;48.52
14295;BME280;7231;59.370;18.016;2023-05-12T01:19:59;102327.25;;;9.33;48.29
14295;BME280;7231;59.370;18.016;2023-05-12T01:22:30;102345.09;;;9.40;48.72
14295;BME280;7231;59.370;18.016;2023-05-12T01:25:01;102332.22;;;9.28;48.64
14295;BME280;7231;59.370;18.016;2023-05-12T01:27:32;102354.59;;;9.38;48.54
14295;BME280;7231;59.370;18.016;2023-05-12T01:30:02;102342.94;;;9.33;48.70
14295;BME280;7231;59.370;18.016;2023-05-12T01:32:31;102350.06;;;9.35;48.72
14295;BME280;7231;59.370;18.016;2023-05-12T01:34:59;102353.50;;;9.34;48.59
14295;BME280;7231;59.370;18.016;2023-05-12T01:37:27;102362.25;;;9.35;48.83
14295;BME280;7231;59.370;18.016;2023-05-12T01:39:55;102357.66;;;9.31;48.83
14295;BME280;7231;59.370;18.016;2023-05-12T01:42:23;102354.06;;;9.29;49.04
14295;BME280;7231;59.370;18.016;2023-05-12T01:44:52;102354.88;;;9.28;49.17
14295;BME280;7231;59.370;18.016;2023-05-12T01:47:20;102361.81;;;9.27;48.91
14295;BME280;7231;59.370;18.016;2023-05-12T01:49:48;102364.34;;;9.26;49.14
14295;BME280;7231;59.370;18.016;2023-05-12T01:52:16;102365.06;;;9.23;49.09
14295;BME280;7231;59.370;18.016;2023-05-12T01:54:44;102354.06;;;9.14;49.18
14295;BME280;7231;59.370;18.016;2023-05-12T01:57:12;102370.13;;;9.20;49.13
14295;BME280;7231;59.370;18.016;2023-05-12T01:59:40;102370.13;;;9.20;49.22
14295;BME280;7231;59.370;18.016;2023-05-12T02:02:09;102358.50;;;9.15;49.39
14295;BME280;7231;59.370;18.016;2023-05-12T02:04:38;102371.75;;;9.18;49.11
14295;BME280;7231;59.370;18.016;2023-05-12T02:07:06;102370.78;;;9.16;49.44
14295;BME280;7231;59.370;18.016;2023-05-12T02:09:34;102344.78;;;9.04;49.47
14295;BME280;7231;59.370;18.016;2023-05-12T02:12:02;102369.78;;;9.14;49.18
14295;BME280;7231;59.370;18.016;2023-05-12T02:14:30;102372.41;;;9.14;49.28
14295;BME280;7231;59.370;18.016;2023-05-12T02:16:58;102368.88;;;9.14;49.41
14295;BME280;7231;59.370;18.016;2023-05-12T02:19:27;102356.16;;;9.05;49.39
14295;BME280;7231;59.370;18.016;2023-05-12T02:21:55;102358.69;;;9.03;49.06
14295;BME280;7231;59.370;18.016;2023-05-12T02:24:23;102371.31;;;9.10;49.82
14295;BME280;7231;59.370;18.016;2023-05-12T02:26:51;102369.78;;;9.14;49.44
14295;BME280;7231;59.370;18.016;2023-05-12T02:29:19;102314.50;;;8.78;49.44
14295;BME280;7231;59.370;18.016;2023-05-12T02:31:47;102377.34;;;9.09;49.47
14295;BME280;7231;59.370;18.016;2023-05-12T02:34:15;102374.47;;;9.05;49.51
14295;BME280;7231;59.370;18.016;2023-05-12T02:36:45;102369.41;;;9.08;49.85
14295;BME280;7231;59.370;18.016;2023-05-12T02:39:13;102377.34;;;9.09;49.43
14295;BME280;7231;59.370;18.016;2023-05-12T02:41:40;102379.97;;;9.09;49.83
14295;BME280;7231;59.370;18.016;2023-05-12T02:44:08;102383.41;;;9.08;49.92
14295;BME280;7231;59.370;18.016;2023-05-12T02:46:36;102374.28;;;9.02;49.93
14295;BME280;7231;59.370;18.016;2023-05-12T02:49:04;102380.25;;;9.14;49.61
14295;BME280;7231;59.370;18.016;2023-05-12T02:51:32;102387.19;;;9.14;49.71
14295;BME280;7231;59.370;18.016;2023-05-12T02:54:02;102374.56;;;9.06;49.93
14295;BME280;7231;59.370;18.016;2023-05-12T02:56:29;102369.06;;;9.02;49.92
14295;BME280;7231;59.370;18.016;2023-05-12T02:58:59;102384.31;;;9.09;50.24
14295;BME280;7231;59.370;18.016;2023-05-12T03:01:27;102384.41;;;9.10;50.32
14295;BME280;7231;59.370;18.016;2023-05-12T03:03:55;102371.69;;;9.02;50.08
14295;BME280;7231;59.370;18.016;2023-05-12T03:06:23;102391.53;;;9.13;50.10
14295;BME280;7231;59.370;18.016;2023-05-12T03:08:51;102388.00;;;9.13;50.01
14295;BME280;7231;59.370;18.016;2023-05-12T03:11:22;102382.69;;;9.11;50.40
14295;BME280;7231;59.370;18.016;2023-05-12T03:13:50;102390.63;;;9.13;50.42
14295;BME280;7231;59.370;18.016;2023-05-12T03:16:18;102382.69;;;9.11;50.50
14295;BME280;7231;59.370;18.016;2023-05-12T03:18:46;102404.88;;;9.18;50.37
14295;BME280;7231;59.370;18.016;2023-05-12T03:21:14;102392.69;;;9.18;50.66
14295;BME280;7231;59.370;18.016;2023-05-12T03:23:42;102362.28;;;9.05;50.26
14295;BME280;7231;59.370;18.016;2023-05-12T03:26:11;102393.97;;;9.25;50.48
14295;BME280;7231;59.370;18.016;2023-05-12T03:28:40;102290.22;;;8.66;50.42
14295;BME280;7231;59.370;18.016;2023-05-12T03:31:08;102394.03;;;9.26;50.25
14295;BME280;7231;59.370;18.016;2023-05-12T03:33:36;102395.03;;;9.28;49.97
14295;BME280;7231;59.370;18.016;2023-05-12T03:36:04;102401.34;;;9.32;50.13
14295;BME280;7231;59.370;18.016;2023-05-12T03:38:32;102373.75;;;9.22;50.12
14295;BME280;7231;59.370;18.016;2023-05-12T03:41:03;102394.84;;;9.40;50.03
14295;BME280;7231;59.370;18.016;2023-05-12T03:43:32;102395.91;;;9.43;49.86
14295;BME280;7231;59.370;18.016;2023-05-12T03:46:01;102386.34;;;9.44;49.98
14295;BME280;7231;59.370;18.016;2023-05-12T03:48:29;102400.69;;;9.51;49.79
14295;BME280;7231;59.370;18.016;2023-05-12T03:50:57;102406.28;;;9.57;49.75
14295;BME280;7231;59.370;18.016;2023-05-12T03:53:25;102395.16;;;9.61;49.67
14295;BME280;7231;59.370;18.016;2023-05-12T03:55:53;102390.19;;;9.65;49.53
14295;BME280;7231;59.370;18.016;2023-05-12T03:58:21;102396.75;;;9.73;49.47
14295;BME280;7231;59.370;18.016;2023-05-12T04:00:49;102393.56;;;9.79;49.32
14295;BME280;7231;59.370;18.016;2023-05-12T04:03:19;102396.63;;;9.87;49.22
14295;BME280;7231;59.370;18.016;2023-05-12T04:05:47;102394.34;;;9.93;49.11
14295;BME280;7231;59.370;18.016;2023-05-12T04:08:15;102400.81;;;9.99;48.88
14295;BME280;7231;59.370;18.016;2023-05-12T04:10:42;102400.34;;;10.06;49.06
14295;BME280;7231;59.370;18.016;2023-05-12T04:13:10;102403.31;;;10.13;48.79
14295;BME280;7231;59.370;18.016;2023-05-12T04:15:39;102406.38;;;10.20;48.57
14295;BME280;7231;59.370;18.016;2023-05-12T04:18:07;102398.03;;;10.27;48.45
14295;BME280;7231;59.370;18.016;2023-05-12T04:20:37;102408.94;;;10.35;48.36
14295;BME280;7231;59.370;18.016;2023-05-12T04:23:05;102401.34;;;10.41;48.02
14295;BME280;7231;59.370;18.016;2023-05-12T04:25:33;102407.91;;;10.49;48.09
14295;BME280;7231;59.370;18.016;2023-05-12T04:28:05;102414.47;;;10.57;47.78
14295;BME280;7231;59.370;18.016;2023-05-12T04:30:35;102364.06;;;10.47;47.63
14295;BME280;7231;59.370;18.016;2023-05-12T04:33:03;102388.81;;;10.68;47.59
14295;BME280;7231;59.370;18.016;2023-05-12T04:35:31;102402.72;;;10.83;47.34
14295;BME280;7231;59.370;18.016;2023-05-12T04:38:01;102400.56;;;10.92;46.88
14295;BME280;7231;59.370;18.016;2023-05-12T04:40:29;102404.47;;;11.00;46.87
14295;BME280;7231;59.370;18.016;2023-05-12T04:43:00;102394.06;;;11.02;46.48
14295;BME280;7231;59.370;18.016;2023-05-12T04:45:28;102288.56;;;10.57;46.05
14295;BME280;7231;59.370;18.016;2023-05-12T04:47:56;102398.91;;;11.28;46.14
14295;BME280;7231;59.370;18.016;2023-05-12T04:50:24;102393.06;;;11.34;45.66
14295;BME280;7231;59.370;18.016;2023-05-12T04:52:52;102405.97;;;11.47;45.54
14295;BME280;7231;59.370;18.016;2023-05-12T04:55:21;102397.56;;;11.54;45.21
14295;BME280;7231;59.370;18.016;2023-05-12T04:57:49;102380.06;;;11.55;45.27
14295;BME280;7231;59.370;18.016;2023-05-12T05:00:17;102402.25;;;11.78;44.59
14295;BME280;7231;59.370;18.016;2023-05-12T05:02:45;102401.03;;;11.89;44.17
14295;BME280;7231;59.370;18.016;2023-05-12T05:05:14;102399.81;;;12.00;44.03
14295;BME280;7231;59.370;18.016;2023-05-12T05:07:42;102395.81;;;12.08;43.84
14295;BME280;7231;59.370;18.016;2023-05-12T05:10:10;102399.75;;;12.18;43.65
14295;BME280;7231;59.370;18.016;2023-05-12T05:12:39;102394.09;;;12.28;43.21
14295;BME280;7231;59.370;18.016;2023-05-12T05:15:08;102396.31;;;12.38;42.71
14295;BME280;7231;59.370;18.016;2023-05-12T05:17:37;102361.56;;;12.26;42.67
14295;BME280;7231;59.370;18.016;2023-05-12T05:20:06;102401.56;;;12.57;42.45
14295;BME280;7231;59.370;18.016;2023-05-12T05:22:37;102402.88;;;12.67;42.63
14295;BME280;7231;59.370;18.016;2023-05-12T05:25:07;102398.84;;;12.75;42.25
14295;BME280;7231;59.370;18.016;2023-05-12T05:27:35;102397.53;;;12.85;42.06
14295;BME280;7231;59.370;18.016;2023-05-12T05:30:07;102383.47;;;12.84;42.10
14295;BME280;7231;59.370;18.016;2023-05-12T05:32:35;102397.22;;;12.98;42.00
14295;BME280;7231;59.370;18.016;2023-05-12T05:35:06;102396.88;;;13.11;41.51
14295;BME280;7231;59.370;18.016;2023-05-12T05:37:34;102394.66;;;13.20;40.74
14295;BME280;7231;59.370;18.016;2023-05-12T05:40:03;102394.16;;;13.29;40.78
14295;BME280;7231;59.370;18.016;2023-05-12T05:42:31;102390.03;;;13.36;40.68
14295;BME280;7231;59.370;18.016;2023-05-12T05:44:59;102391.25;;;13.44;40.62
14295;BME280;7231;59.370;18.016;2023-05-12T05:47:28;102394.25;;;13.53;39.99
14295;BME280;7231;59.370;18.016;2023-05-12T05:49:57;102364.19;;;13.48;39.77
14295;BME280;7231;59.370;18.016;2023-05-12T05:52:25;102389.63;;;13.68;39.83
14295;BME280;7231;59.370;18.016;2023-05-12T05:54:53;102390.09;;;13.80;39.12
14295;BME280;7231;59.370;18.016;2023-05-12T05:57:21;102389.75;;;13.93;38.83
14295;BME280;7231;59.370;18.016;2023-05-12T05:59:49;102396.28;;;14.03;38.63
14295;BME280;7231;59.370;18.016;2023-05-12T06:02:17;102378.72;;;14.04;38.91
14295;BME280;7231;59.370;18.016;2023-05-12T06:04:50;102398.72;;;14.21;38.54
14295;BME280;7231;59.370;18.016;2023-05-12T06:07:18;102386.44;;;14.21;38.14
14295;BME280;7231;59.370;18.016;2023-05-12T06:09:47;102381.44;;;14.29;38.25
14295;BME280;7231;59.370;18.016;2023-05-12T06:12:15;102387.25;;;14.43;37.46
14295;BME280;7231;59.370;18.016;2023-05-12T06:14:45;102376.81;;;14.46;37.39
14295;BME280;7231;59.370;18.016;2023-05-12T06:17:13;102393.16;;;14.59;37.22
14295;BME280;7231;59.370;18.016;2023-05-12T06:19:41;102392.53;;;14.67;37.00
14295;BME280;7231;59.370;18.016;2023-05-12T06:22:14;102392.75;;;14.73;36.72
14295;BME280;7231;59.370;18.016;2023-05-12T06:24:42;102393.81;;;14.78;36.80
14295;BME280;7231;59.370;18.016;2023-05-12T06:27:10;102404.66;;;14.85;36.82
14295;BME280;7231;59.370;18.016;2023-05-12T06:29:38;102393.50;;;14.94;36.47
14295;BME280;7231;59.370;18.016;2023-05-12T06:32:08;102394.78;;;15.05;36.23
14295;BME280;7231;59.370;18.016;2023-05-12T06:34:36;102392.34;;;15.11;36.00
14295;BME280;7231;59.370;18.016;2023-05-12T06:37:06;102368.25;;;15.02;35.66
14295;BME280;7231;59.370;18.016;2023-05-12T06:39:36;102371.06;;;15.07;35.70
14295;BME280;7231;59.370;18.016;2023-05-12T06:42:04;102392.97;;;15.30;35.38
14295;BME280;7231;59.370;18.016;2023-05-12T06:44:32;102394.09;;;15.36;35.25
14295;BME280;7231;59.370;18.016;2023-05-12T06:47:00;102399.56;;;15.42;35.32
14295;BME280;7231;59.370;18.016;2023-05-12T06:49:28;102398.06;;;15.50;35.36
14295;BME280;7231;59.370;18.016;2023-05-12T06:51:56;102401.00;;;15.58;35.20
14295;BME280;7231;59.370;18.016;2023-05-12T06:54:24;102395.78;;;15.61;35.17
14295;BME280;7231;59.370;18.016;2023-05-12T06:56:54;102406.84;;;15.76;35.18
14295;BME280;7231;59.370;18.016;2023-05-12T06:59:22;102411.53;;;15.85;34.91
14295;BME280;7231;59.370;18.016;2023-05-12T07:01:50;102414.50;;;15.96;34.63
14295;BME280;7231;59.370;18.016;2023-05-12T07:04:18;102391.75;;;16.01;34.84
14295;BME280;7231;59.370;18.016;2023-05-12T07:06:47;102404.91;;;16.28;34.66
14295;BME280;7231;59.370;18.016;2023-05-12T07:09:15;102408.09;;;16.46;34.62
14295;BME280;7231;59.370;18.016;2023-05-12T07:11:44;102405.72;;;16.55;34.05
14295;BME280;7231;59.370;18.016;2023-05-12T07:14:13;102397.94;;;16.61;34.05
14295;BME280;7231;59.370;18.016;2023-05-12T07:16:41;102395.00;;;16.82;34.43
14295;BME280;7231;59.370;18.016;2023-05-12T07:19:09;102403.88;;;17.15;34.70
14295;BME280;7231;59.370;18.016;2023-05-12T07:21:37;102399.41;;;17.49;34.54
14295;BME280;7231;59.370;18.016;2023-05-12T07:24:06;102397.13;;;18.00;34.12
14295;BME280;7231;59.370;18.016;2023-05-12T07:26:34;102394.69;;;18.55;33.63
14295;BME280;7231;59.370;18.016;2023-05-12T07:29:03;102400.78;;;18.93;32.67
14295;BME280;7231;59.370;18.016;2023-05-12T07:31:33;102399.25;;;19.05;31.42
14295;BME280;7231;59.370;18.016;2023-05-12T07:34:02;102382.13;;;19.39;31.40
14295;BME280;7231;59.370;18.016;2023-05-12T07:36:33;102390.53;;;19.64;30.41
14295;BME280;7231;59.370;18.016;2023-05-12T07:39:01;102399.69;;;19.83;30.35
14295;BME280;7231;59.370;18.016;2023-05-12T07:41:29;102376.81;;;19.98;30.22
14295;BME280;7231;59.370;18.016;2023-05-12T07:44:00;102376.81;;;19.97;29.31
14295;BME280;7231;59.370;18.016;2023-05-12T07:46:28;102383.22;;;20.11;29.54
14295;BME280;7231;59.370;18.016;2023-05-12T07:48:57;102382.56;;;20.29;29.34
14295;BME280;7231;59.370;18.016;2023-05-12T07:51:25;102392.63;;;20.51;28.63
14295;BME280;7231;59.370;18.016;2023-05-12T07:53:53;102389.63;;;20.27;27.95
14295;BME280;7231;59.370;18.016;2023-05-12T07:56:23;102383.94;;;19.99;28.46
14295;BME280;7231;59.370;18.016;2023-05-12T07:58:51;102388.00;;;20.38;28.79
14295;BME280;7231;59.370;18.016;2023-05-12T08:01:19;102392.53;;;20.42;27.80
14295;BME280;7231;59.370;18.016;2023-05-12T08:03:47;102389.78;;;20.37;27.84
14295;BME280;7231;59.370;18.016;2023-05-12T08:06:18;102399.41;;;20.28;27.86
14295;BME280;7231;59.370;18.016;2023-05-12T08:08:47;102374.03;;;19.89;28.09
14295;BME280;7231;59.370;18.016;2023-05-12T08:11:15;102399.59;;;20.40;28.62
14295;BME280;7231;59.370;18.016;2023-05-12T08:13:44;102401.81;;;20.78;28.10
14295;BME280;7231;59.370;18.016;2023-05-12T08:16:12;102393.06;;;20.92;28.10
14295;BME280;7231;59.370;18.016;2023-05-12T08:18:40;102398.03;;;21.47;27.73
14295;BME280;7231;59.370;18.016;2023-05-12T08:21:08;102386.69;;;21.77;27.71
14295;BME280;7231;59.370;18.016;2023-05-12T08:23:38;102397.63;;;22.16;27.15
14295;BME280;7231;59.370;18.016;2023-05-12T08:26:06;102398.47;;;22.05;26.45
14295;BME280;7231;59.370;18.016;2023-05-12T08:28:34;102393.88;;;21.87;26.88
14295;BME280;7231;59.370;18.016;2023-05-12T08:31:02;102395.91;;;22.30;26.89
14295;BME280;7231;59.370;18.016;2023-05-12T08:33:30;102381.69;;;22.34;26.18
14295;BME280;7231;59.370;18.016;2023-05-12T08:36:00;102378.22;;;22.72;26.13
14295;BME280;7231;59.370;18.016;2023-05-12T08:38:28;102400.59;;;22.92;26.08
14295;BME280;7231;59.370;18.016;2023-05-12T08:41:10;102383.56;;;22.60;25.18
14295;BME280;7231;59.370;18.016;2023-05-12T08:43:42;102375.38;;;22.17;25.54
14295;BME280;7231;59.370;18.016;2023-05-12T08:46:13;102369.84;;;21.88;25.88
14295;BME280;7231;59.370;18.016;2023-05-12T08:48:44;102271.41;;;21.08;25.69
14295;BME280;7231;59.370;18.016;2023-05-12T08:51:13;102381.09;;;21.43;26.07
14295;BME280;7231;59.370;18.016;2023-05-12T08:53:41;102388.28;;;21.53;26.24
14295;BME280;7231;59.370;18.016;2023-05-12T08:56:12;102366.25;;;21.83;26.40
14295;BME280;7231;59.370;18.016;2023-05-12T08:58:44;102376.25;;;22.16;26.56
14295;BME280;7231;59.370;18.016;2023-05-12T09:01:13;102384.53;;;22.82;25.88
14295;BME280;7231;59.370;18.016;2023-05-12T09:03:43;102375.66;;;23.31;25.17
14295;BME280;7231;59.370;18.016;2023-05-12T09:06:11;102378.31;;;23.54;24.84
14295;BME280;7231;59.370;18.016;2023-05-12T09:08:40;102366.56;;;24.12;25.03
14295;BME280;7231;59.370;18.016;2023-05-12T09:11:11;102360.28;;;24.20;24.34
14295;BME280;7231;59.370;18.016;2023-05-12T09:13:46;102359.44;;;24.08;24.02
14295;BME280;7231;59.370;18.016;2023-05-12T09:16:19;102340.78;;;23.73;24.08
14295;BME280;7231;59.370;18.016;2023-05-12T09:18:50;102375.66;;;23.33;24.25
14295;BME280;7231;59.370;18.016;2023-05-12T09:21:19;102371.16;;;22.88;25.28
14295;BME280;7231;59.370;18.016;2023-05-12T09:23:54;102360.44;;;23.47;25.02
14295;BME280;7231;59.370;18.016;2023-05-12T09:26:25;102358.63;;;23.83;24.63
14295;BME280;7231;59.370;18.016;2023-05-12T09:28:55;102351.53;;;23.63;24.16
14295;BME280;7231;59.370;18.016;2023-05-12T09:31:33;102360.44;;;23.47;24.26
14295;BME280;7231;59.370;18.016;2023-05-12T09:34:06;102359.50;;;23.88;24.30
14295;BME280;7231;59.370;18.016;2023-05-12T09:36:34;102220.38;;;23.38;24.17
14295;BME280;7231;59.370;18.016;2023-05-12T09:39:03;102350.44;;;24.30;23.81
14295;BME280;7231;59.370;18.016;2023-05-12T09:41:35;102350.44;;;24.25;23.50
14295;BME280;7231;59.370;18.016;2023-05-12T09:44:04;102352.31;;;24.04;23.60
14295;BME280;7231;59.370;18.016;2023-05-12T09:46:32;102347.75;;;24.35;23.76
14295;BME280;7231;59.370;18.016;2023-05-12T09:49:01;102345.03;;;24.39;23.74
14295;BME280;7231;59.370;18.016;2023-05-12T09:51:29;102340.47;;;24.55;24.23
14295;BME280;7231;59.370;18.016;2023-05-12T09:53:58;102347.22;;;25.17;23.65
14295;BME280;7231;59.370;18.016;2023-05-12T09:56:27;102333.28;;;25.73;23.24
14295;BME280;7231;59.370;18.016;2023-05-12T09:58:59;102318.38;;;26.15;22.57
14295;BME280;7231;59.370;18.016;2023-05-12T10:01:30;102335.81;;;26.53;22.63
14295;BME280;7231;59.370;18.016;2023-05-12T10:03:59;102339.75;;;26.91;22.09
14295;BME280;7231;59.370;18.016;2023-05-12T10:06:30;102338.81;;;26.93;21.97
14295;BME280;7231;59.370;18.016;2023-05-12T10:09:06;102339.34;;;27.16;21.31
14295;BME280;7231;59.370;18.016;2023-05-12T10:11:36;102241.28;;;26.17;21.07
14295;BME280;7231;59.370;18.016;2023-05-12T10:14:05;102343.97;;;26.48;21.56
14295;BME280;7231;59.370;18.016;2023-05-12T10:16:35;102331.00;;;26.10;21.57
14295;BME280;7231;59.370;18.016;2023-05-12T10:19:04;102316.06;;;25.88;22.07
14295;BME280;7231;59.370;18.016;2023-05-12T10:21:33;102336.34;;;26.12;21.67
14295;BME280;7231;59.370;18.016;2023-05-12T10:24:03;102225.88;;;25.66;21.76
14295;BME280;7231;59.370;18.016;2023-05-12T10:26:31;102333.22;;;26.47;21.45
14295;BME280;7231;59.370;18.016;2023-05-12T10:29:00;102331.41;;;26.49;21.24
14295;BME280;7231;59.370;18.016;2023-05-12T10:31:30;102338.94;;;26.21;21.44
14295;BME280;7231;59.370;18.016;2023-05-12T10:33:59;102333.94;;;25.00;21.81
14295;BME280;7231;59.370;18.016;2023-05-12T10:36:28;102341.56;;;24.08;22.73
14295;BME280;7231;59.370;18.016;2023-05-12T10:39:04;102338.88;;;24.14;23.17
14295;BME280;7231;59.370;18.016;2023-05-12T10:41:33;102338.94;;;23.99;22.99
14295;BME280;7231;59.370;18.016;2023-05-12T10:44:01;102328.09;;;24.23;23.39
14295;BME280;7231;59.370;18.016;2023-05-12T10:46:31;102325.88;;;25.00;22.83
14295;BME280;7231;59.370;18.016;2023-05-12T10:49:01;102307.81;;;25.19;22.65
14295;BME280;7231;59.370;18.016;2023-05-12T10:51:31;102323.59;;;25.52;22.26
14295;BME280;7231;59.370;18.016;2023-05-12T10:54:00;102311.28;;;25.32;22.51
14295;BME280;7231;59.370;18.016;2023-05-12T10:56:35;102318.13;;;25.65;22.36
14295;BME280;7231;59.370;18.016;2023-05-12T10:59:10;102321.69;;;25.67;21.91
14295;BME280;7231;59.370;18.016;2023-05-12T11:01:42;102303.75;;;25.69;22.11
14295;BME280;7231;59.370;18.016;2023-05-12T11:04:34;102272.72;;;25.39;22.18
14295;BME280;7231;59.370;18.016;2023-05-12T11:07:04;102319.69;;;25.87;21.89
14295;BME280;7231;59.370;18.016;2023-05-12T11:09:35;102307.00;;;25.97;21.89
14295;BME280;7231;59.370;18.016;2023-05-12T11:12:16;102314.78;;;26.16;21.84
14295;BME280;7231;59.370;18.016;2023-05-12T11:14:45;102326.25;;;26.34;21.50
14295;BME280;7231;59.370;18.016;2023-05-12T11:17:14;102319.56;;;25.96;21.57
14295;BME280;7231;59.370;18.016;2023-05-12T11:19:45;102319.69;;;25.85;21.76
14295;BME280;7231;59.370;18.016;2023-05-12T11:22:15;102309.25;;;25.55;21.87
14295;BME280;7231;59.370;18.016;2023-05-12T11:24:43;102322.03;;;25.30;21.80
14295;BME280;7231;59.370;18.016;2023-05-12T11:27:14;102322.31;;;25.00;22.14
14295;BME280;7231;59.370;18.016;2023-05-12T11:29:42;102320.56;;;24.91;21.98
14295;BME280;7231;59.370;18.016;2023-05-12T11:32:15;102300.25;;;24.55;22.25
14295;BME280;7231;59.370;18.016;2023-05-12T11:34:43;102327.63;;;25.07;22.75
14295;BME280;7231;59.370;18.016;2023-05-12T11:37:12;102294.75;;;25.73;21.86
14295;BME280;7231;59.370;18.016;2023-05-12T11:39:40;102316.84;;;25.99;22.20
14295;BME280;7231;59.370;18.016;2023-05-12T11:42:08;102314.75;;;26.19;21.97
14295;BME280;7231;59.370;18.016;2023-05-12T11:44:45;102310.63;;;25.94;22.14
14295;BME280;7231;59.370;18.016;2023-05-12T11:47:16;102313.72;;;26.30;21.93
14295;BME280;7231;59.370;18.016;2023-05-12T11:49:47;102303.88;;;26.29;21.63
14295;BME280;7231;59.370;18.016;2023-05-12T11:52:17;102313.25;;;25.99;21.95
14295;BME280;7231;59.370;18.016;2023-05-12T11:54:49;102313.78;;;26.24;21.67
14295;BME280;7231;59.370;18.016;2023-05-12T11:57:24;102311.25;;;26.77;21.21
14295;BME280;7231;59.370;18.016;2023-05-12T11:59:57;102317.19;;;26.99;21.45
14295;BME280;7231;59.370;18.016;2023-05-12T12:02:27;102309.31;;;26.85;21.25
14295;BME280;7231;59.370;18.016;2023-05-12T12:04:56;102315.59;;;26.23;21.30
14295;BME280;7231;59.370;18.016;2023-05-12T12:07:28;102313.78;;;26.24;21.67
14295;BME280;7231;59.370;18.016;2023-05-12T12:09:57;102311.91;;;26.92;21.63
14295;BME280;7231;59.370;18.016;2023-05-12T12:12:26;102308.03;;;27.60;21.40
14295;BME280;7231;59.370;18.016;2023-05-12T12:14:54;102316.25;;;27.99;20.72
14295;BME280;7231;59.370;18.016;2023-05-12T12:17:27;102317.34;;;27.89;20.33
14295;BME280;7231;59.370;18.016;2023-05-12T12:19:57;102306.34;;;27.04;20.84
14295;BME280;7231;59.370;18.016;2023-05-12T12:22:26;102254.59;;;26.27;21.44
14295;BME280;7231;59.370;18.016;2023-05-12T12:24:58;102308.53;;;26.79;21.38
14295;BME280;7231;59.370;18.016;2023-05-12T12:27:26;102301.44;;;27.27;21.28
14295;BME280;7231;59.370;18.016;2023-05-12T12:29:54;102304.13;;;28.18;21.07
14295;BME280;7231;59.370;18.016;2023-05-12T12:32:22;102296.66;;;28.69;20.50
14295;BME280;7231;59.370;18.016;2023-05-12T12:34:51;102302.63;;;29.19;19.89
14295;BME280;7231;59.370;18.016;2023-05-12T12:37:19;102299.75;;;28.54;20.06
14295;BME280;7231;59.370;18.016;2023-05-12T12:39:47;102298.50;;;29.04;20.11
14295;BME280;7231;59.370;18.016;2023-05-12T12:42:15;102295.63;;;29.46;19.26
14295;BME280;7231;59.370;18.016;2023-05-12T12:44:46;102290.19;;;29.79;19.20
14295;BME280;7231;59.370;18.016;2023-05-12T12:47:16;102296.94;;;30.24;18.89
14295;BME280;7231;59.370;18.016;2023-05-12T12:49:43;102294.09;;;30.29;18.61
14295;BME280;7231;59.370;18.016;2023-05-12T12:52:13;102284.91;;;29.74;18.26
14295;BME280;7231;59.370;18.016;2023-05-12T12:54:41;102296.53;;;29.45;18.42
14295;BME280;7231;59.370;18.016;2023-05-12T12:57:09;102288.34;;;29.14;18.26
14295;BME280;7231;59.370;18.016;2023-05-12T12:59:36;102295.34;;;29.21;18.36
14295;BME280;7231;59.370;18.016;2023-05-12T13:02:05;102298.88;;;29.59;18.17